Time;durP1;ratioP1;P1;durP2;ratioP2;P2;SDS_P1;SDS_P2;PMS_P1;PMS_P2;Temp;Humidity;BMP_temperature;BMP_pressure;BME280_temperature;BME280_humidity;BME280_pressure;Samples;Min_cycle;Max_cycle;Signal;HPM_P1;HPM_P2
2021/10/06 00:00:26;;;;;;;8.33;2.10;;;10.90;99.90;;;;;;5073720;28;20250;-77
2021/10/06 00:02:53;;;;;;;8.33;1.70;;;10.90;99.90;;;;;;5073693;28;20224;-78
2021/10/06 00:05:20;;;;;;;13.10;2.20;;;10.90;99.90;;;;;;5073481;28;20208;-77
2021/10/06 00:07:46;;;;;;;9.20;2.07;;;10.80;99.90;;;;;;5072987;28;20564;-78
2021/10/06 00:10:15;;;;;;;11.70;2.53;;;10.80;99.90;;;;;;5073497;28;20202;-77
2021/10/06 00:12:42;;;;;;;9.20;1.90;;;10.70;99.90;;;;;;5073440;28;20282;-77
2021/10/06 00:15:12;;;;;;;6.73;1.80;;;10.70;99.90;;;;;;5073897;28;20198;-77
2021/10/06 00:17:40;;;;;;;10.63;2.00;;;10.80;99.90;;;;;;5073116;28;20674;-78
2021/10/06 00:20:08;;;;;;;14.37;2.17;;;10.80;99.90;;;;;;5073178;28;20222;-77
2021/10/06 00:22:35;;;;;;;8.53;1.77;;;10.80;99.90;;;;;;5073252;28;20199;-77
2021/10/06 00:25:03;;;;;;;12.43;2.10;;;10.80;99.90;;;;;;5073313;28;20598;-77
2021/10/06 00:27:31;;;;;;;10.07;2.00;;;10.70;99.90;;;;;;5073089;28;20532;-77
2021/10/06 00:29:58;;;;;;;9.67;2.37;;;10.70;99.90;;;;;;5071368;28;20649;-77
2021/10/06 00:32:25;;;;;;;11.70;1.80;;;10.70;99.90;;;;;;5073343;28;20199;-77
2021/10/06 00:34:52;;;;;;;9.23;1.80;;;10.70;99.90;;;;;;5073344;28;20214;-78
2021/10/06 00:37:19;;;;;;;9.43;1.83;;;10.70;99.90;;;;;;5072677;28;20736;-79
2021/10/06 00:39:46;;;;;;;7.40;1.30;;;10.80;99.90;;;;;;5073348;28;20579;-78
2021/10/06 00:42:13;;;;;;;12.53;1.90;;;10.80;99.90;;;;;;5072969;28;20202;-79
2021/10/06 00:44:41;;;;;;;8.43;1.93;;;10.80;99.90;;;;;;5073277;28;20633;-78
2021/10/06 00:47:13;;;;;;;14.90;1.83;;;10.80;99.90;;;;;;5073233;28;20204;-78
2021/10/06 00:49:40;;;;;;;15.30;1.90;;;10.80;99.90;;;;;;5072883;28;20200;-77
2021/10/06 00:52:07;;;;;;;11.07;2.03;;;10.80;99.90;;;;;;5073129;28;20209;-77
2021/10/06 00:54:36;;;;;;;13.40;1.90;;;10.70;99.90;;;;;;5073415;28;20210;-78
2021/10/06 00:57:04;;;;;;;14.33;2.10;;;10.70;99.90;;;;;;5073041;28;20197;-78
2021/10/06 00:59:31;;;;;;;9.33;2.30;;;10.80;99.90;;;;;;5072935;28;20219;-77
2021/10/06 01:01:59;;;;;;;7.27;1.63;;;10.80;99.90;;;;;;5072794;28;20227;-77
2021/10/06 01:04:26;;;;;;;7.50;1.87;;;10.90;99.90;;;;;;5073184;28;20293;-78
2021/10/06 01:06:54;;;;;;;11.67;1.87;;;11.00;99.90;;;;;;5073556;28;20209;-78
2021/10/06 01:09:22;;;;;;;13.10;1.80;;;11.00;99.90;;;;;;5073030;28;20297;-77
2021/10/06 01:11:49;;;;;;;11.10;1.47;;;11.10;99.90;;;;;;5072812;28;20686;-78
2021/10/06 01:14:16;;;;;;;14.43;2.33;;;11.00;99.90;;;;;;5072966;28;20208;-78
2021/10/06 01:16:43;;;;;;;15.60;2.10;;;10.90;99.90;;;;;;5075703;28;20298;-78
2021/10/06 01:19:20;;;;;;;4.33;1.20;;;10.90;99.90;;;;;;5077055;28;20198;-77
2021/10/06 01:21:49;;;;;;;7.47;2.30;;;10.80;99.90;;;;;;5077062;28;20209;-77
2021/10/06 01:24:16;;;;;;;6.73;1.83;;;10.80;99.90;;;;;;5076316;28;20203;-77
2021/10/06 01:26:43;;;;;;;7.20;1.77;;;10.80;99.90;;;;;;5077387;28;20205;-77
2021/10/06 01:29:11;;;;;;;12.90;2.00;;;10.80;99.90;;;;;;5076586;28;20232;-77
2021/10/06 01:31:38;;;;;;;13.47;1.80;;;10.80;99.90;;;;;;5076698;28;20294;-79
2021/10/06 01:34:05;;;;;;;10.37;1.73;;;10.70;99.90;;;;;;5076550;28;20214;-78
2021/10/06 01:36:31;;;;;;;6.07;1.80;;;10.70;99.90;;;;;;5076740;28;20209;-78
2021/10/06 01:39:00;;;;;;;11.37;1.60;;;10.70;99.90;;;;;;5076499;28;20699;-79
2021/10/06 01:41:30;;;;;;;11.90;1.50;;;10.70;99.90;;;;;;5076447;28;20583;-79
2021/10/06 01:43:57;;;;;;;8.90;1.60;;;10.70;99.90;;;;;;5076704;28;20728;-77
2021/10/06 01:46:24;;;;;;;6.60;1.70;;;10.70;99.90;;;;;;5076291;28;20200;-77
2021/10/06 01:48:51;;;;;;;6.90;1.57;;;10.70;99.90;;;;;;5076244;28;20206;-78
2021/10/06 01:51:18;;;;;;;8.53;1.27;;;10.70;99.90;;;;;;5076167;28;20656;-77
2021/10/06 01:53:45;;;;;;;9.37;2.03;;;10.70;99.90;;;;;;5076163;28;20233;-78
2021/10/06 01:56:13;;;;;;;11.77;2.10;;;10.70;99.90;;;;;;5076218;28;20200;-78
2021/10/06 01:58:40;;;;;;;5.03;1.30;;;10.70;99.90;;;;;;5077635;28;20240;-77
2021/10/06 02:01:07;;;;;;;6.13;1.30;;;10.80;99.90;;;;;;5086871;28;20217;-78
2021/10/06 02:03:34;;;;;;;9.03;1.50;;;10.90;99.90;;;;;;5076258;28;20207;-78
2021/10/06 02:06:01;;;;;;;10.70;1.67;;;11.00;99.90;;;;;;5076264;28;20248;-78
2021/10/06 02:08:27;;;;;;;6.47;1.13;;;11.00;99.90;;;;;;5075704;28;20208;-78
2021/10/06 02:10:54;;;;;;;6.33;1.60;;;11.00;99.90;;;;;;5072306;28;20608;-78
2021/10/06 02:13:23;;;;;;;10.40;1.53;;;11.10;99.90;;;;;;5074851;28;20195;-78
2021/10/06 02:15:49;;;;;;;9.97;2.27;;;11.10;99.90;;;;;;5075145;28;20209;-78
2021/10/06 02:18:17;;;;;;;6.93;1.27;;;11.10;99.90;;;;;;5075473;28;20758;-78
2021/10/06 02:20:44;;;;;;;7.70;1.53;;;11.20;99.90;;;;;;5074642;28;20230;-78
2021/10/06 02:23:11;;;;;;;8.87;1.50;;;11.20;99.90;;;;;;5074998;28;20293;-78
2021/10/06 02:25:38;;;;;;;8.47;1.77;;;11.20;99.90;;;;;;5075208;28;20625;-77
2021/10/06 02:28:05;;;;;;;10.33;1.93;;;11.30;99.90;;;;;;5074133;28;20735;-78
2021/10/06 02:30:34;;;;;;;9.83;1.60;;;11.40;99.90;;;;;;5074225;28;20673;-78
2021/10/06 02:33:01;;;;;;;2.80;1.00;;;11.40;99.90;;;;;;5074311;28;20223;-78
2021/10/06 02:35:28;;;;;;;7.43;1.60;;;11.40;99.90;;;;;;5074831;28;20296;-78
2021/10/06 02:37:55;;;;;;;6.23;1.53;;;11.40;99.90;;;;;;5074858;28;20222;-77
2021/10/06 02:40:22;;;;;;;6.40;1.43;;;11.50;99.90;;;;;;5074585;28;20269;-77
2021/10/06 02:42:50;;;;;;;12.00;1.27;;;11.50;99.90;;;;;;5074585;28;20646;-78
2021/10/06 02:45:19;;;;;;;7.00;1.47;;;11.50;99.90;;;;;;5074797;28;20206;-79
2021/10/06 02:47:48;;;;;;;7.87;1.57;;;11.50;99.90;;;;;;5074946;28;20233;-78
2021/10/06 02:50:18;;;;;;;11.37;2.03;;;11.60;99.90;;;;;;5074279;28;20655;-78
2021/10/06 02:52:45;;;;;;;8.83;1.23;;;11.60;99.90;;;;;;5075314;28;20208;-78
2021/10/06 02:55:13;;;;;;;5.97;1.30;;;11.60;99.90;;;;;;5074340;28;20209;-78
2021/10/06 02:57:39;;;;;;;13.40;1.77;;;11.60;99.90;;;;;;5074856;28;20206;-78
2021/10/06 03:00:08;;;;;;;10.60;1.83;;;11.50;99.90;;;;;;5074306;28;20230;-78
2021/10/06 03:02:35;;;;;;;5.23;1.30;;;11.40;99.90;;;;;;5074654;28;20673;-78
2021/10/06 03:05:04;;;;;;;5.50;1.20;;;11.40;99.90;;;;;;5074464;28;20673;-78
2021/10/06 03:07:31;;;;;;;7.03;1.63;;;11.40;99.90;;;;;;5060750;28;20206;-78
2021/10/06 03:09:58;;;;;;;8.57;1.43;;;11.50;99.90;;;;;;5074671;28;20577;-78
2021/10/06 03:12:25;;;;;;;5.60;1.10;;;11.50;99.90;;;;;;5074614;28;20232;-78
2021/10/06 03:14:52;;;;;;;5.33;0.90;;;11.40;99.90;;;;;;5074354;28;20210;-78
2021/10/06 03:17:18;;;;;;;12.57;1.50;;;11.40;99.90;;;;;;5074439;28;20207;-78
2021/10/06 03:19:45;;;;;;;6.60;1.13;;;11.40;99.90;;;;;;5073915;28;20199;-78
2021/10/06 03:22:13;;;;;;;9.23;1.40;;;11.50;99.90;;;;;;5074420;28;20204;-78
2021/10/06 03:24:40;;;;;;;8.97;1.40;;;11.50;99.90;;;;;;5073954;28;20577;-78
2021/10/06 03:27:07;;;;;;;9.37;1.20;;;11.40;99.90;;;;;;5074235;28;20206;-78
2021/10/06 03:29:34;;;;;;;11.97;1.10;;;11.40;99.90;;;;;;5073609;28;20324;-78
2021/10/06 03:32:01;;;;;;;7.50;1.20;;;11.50;99.90;;;;;;5073786;28;20202;-78
2021/10/06 03:34:28;;;;;;;5.53;1.00;;;11.50;99.90;;;;;;5073839;28;20287;-78
2021/10/06 03:36:54;;;;;;;16.00;1.50;;;11.40;99.90;;;;;;5074124;28;20202;-78
2021/10/06 03:39:23;;;;;;;7.17;1.20;;;11.40;99.90;;;;;;5073227;28;20297;-78
2021/10/06 03:41:49;;;;;;;6.50;1.17;;;11.30;99.90;;;;;;5074129;28;20227;-78
2021/10/06 03:44:16;;;;;;;6.67;1.40;;;11.40;99.90;;;;;;5073031;28;20217;-78
2021/10/06 03:46:43;;;;;;;5.73;1.03;;;11.40;99.90;;;;;;5074252;28;20297;-78
2021/10/06 03:49:10;;;;;;;9.13;1.37;;;11.50;99.90;;;;;;5064895;28;20206;-78
2021/10/06 03:51:39;;;;;;;11.30;1.23;;;11.50;99.90;;;;;;5071556;28;20644;-77
2021/10/06 03:54:06;;;;;;;6.93;1.50;;;11.50;99.90;;;;;;5073357;28;20674;-78
2021/10/06 03:56:35;;;;;;;5.03;1.00;;;11.50;99.90;;;;;;5073242;28;20264;-77
2021/10/06 03:59:02;;;;;;;5.87;1.37;;;11.50;99.90;;;;;;5073263;28;20252;-78
2021/10/06 04:01:29;;;;;;;11.73;1.30;;;11.50;99.90;;;;;;5062602;28;20233;-78
2021/10/06 04:03:55;;;;;;;7.20;1.10;;;11.50;99.90;;;;;;5073562;28;20198;-78
2021/10/06 04:06:22;;;;;;;5.87;1.30;;;11.50;99.90;;;;;;5061844;28;20199;-78
2021/10/06 04:08:49;;;;;;;4.90;1.07;;;11.50;99.90;;;;;;5055315;28;20213;-78
2021/10/06 04:11:16;;;;;;;6.70;1.23;;;11.50;99.90;;;;;;5053298;28;20257;-78
2021/10/06 04:13:44;;;;;;;9.67;1.13;;;11.50;99.90;;;;;;5058064;28;20283;-77
2021/10/06 04:16:11;;;;;;;10.67;1.17;;;11.60;99.90;;;;;;5065347;28;20207;-78
2021/10/06 04:18:38;;;;;;;5.27;1.07;;;11.50;99.90;;;;;;5068818;28;20746;-78
2021/10/06 04:21:05;;;;;;;5.37;0.90;;;11.50;99.90;;;;;;5072683;28;20318;-78
2021/10/06 04:23:31;;;;;;;8.53;1.57;;;11.60;99.90;;;;;;5066099;28;20238;-78
2021/10/06 04:25:58;;;;;;;8.53;1.30;;;11.60;99.90;;;;;;5063683;28;20278;-78
2021/10/06 04:28:25;;;;;;;10.10;1.20;;;11.60;99.90;;;;;;5061902;28;20202;-77
2021/10/06 04:30:53;;;;;;;6.43;1.40;;;11.70;99.90;;;;;;5069682;28;20229;-78
2021/10/06 04:33:20;;;;;;;4.47;1.07;;;11.70;99.90;;;;;;5063640;28;20674;-78
2021/10/06 04:35:47;;;;;;;7.60;1.00;;;11.70;99.90;;;;;;5072492;28;20204;-78
2021/10/06 04:38:14;;;;;;;6.67;1.30;;;11.70;99.90;;;;;;5064126;28;20203;-78
2021/10/06 04:40:41;;;;;;;7.93;1.30;;;11.70;99.90;;;;;;5068056;28;20581;-78
2021/10/06 04:43:11;;;;;;;8.00;1.00;;;11.60;99.90;;;;;;5070929;28;20293;-77
2021/10/06 04:45:38;;;;;;;8.40;1.23;;;11.50;99.90;;;;;;5072176;28;20267;-78
2021/10/06 04:48:07;;;;;;;4.53;1.30;;;11.50;99.90;;;;;;5072845;28;20206;-78
2021/10/06 04:50:33;;;;;;;8.03;1.37;;;11.40;99.90;;;;;;5070054;28;20206;-78
2021/10/06 04:53:01;;;;;;;5.60;0.80;;;11.30;99.90;;;;;;5072327;28;20576;-79
2021/10/06 04:55:28;;;;;;;7.80;1.33;;;11.30;99.90;;;;;;5072807;28;20499;-78
2021/10/06 04:57:57;;;;;;;8.07;1.43;;;11.30;99.90;;;;;;5071949;28;20210;-78
2021/10/06 05:00:24;;;;;;;7.93;1.33;;;11.30;99.90;;;;;;5065180;28;20255;-78
2021/10/06 05:02:51;;;;;;;10.37;0.93;;;11.30;99.90;;;;;;5073528;28;20274;-78
2021/10/06 05:05:19;;;;;;;7.60;1.43;;;11.20;99.90;;;;;;5072644;28;20230;-78
2021/10/06 05:07:46;;;;;;;5.83;1.23;;;11.20;99.90;;;;;;5072860;28;20414;-79
2021/10/06 05:10:13;;;;;;;13.03;1.70;;;11.20;99.90;;;;;;5071880;28;20202;-79
2021/10/06 05:12:40;;;;;;;4.83;0.93;;;11.20;99.90;;;;;;5072503;28;20194;-79
2021/10/06 05:15:08;;;;;;;9.10;1.17;;;11.20;99.90;;;;;;5072033;28;20211;-80
